Terminal Aerodrome Forecast
Issued by NWS

Home | Current Version | Previous Version | Text Only | Print | Product List | Glossary On
Versions: 1 2 3 4 5 6 7 8 9 10 11 12 13 14 15 16
000
FTUS44 KEWX 180600 AAA
TAFSSF
TAF AMD
KSSF 180609Z 1806/1906 08005KT 6SM -DZ BR BKN005 BKN040 OVC060
     FM180800 04006KT 1SM -DZ BR OVC004
      TEMPO 1810/1814 1/2SM FG
     FM181600 07006KT 4SM BR OVC012
     FM181800 07006KT P6SM BKN035=

USA.gov is the U.S. government's official web portal to all federal, state and local government web resources and services.